createdAt,value
2023-04-08T00:00:18.101Z,38
2023-04-08T00:01:21.400Z,38
2023-04-08T00:02:25.215Z,38
2023-04-08T00:03:29.157Z,38
2023-04-08T00:04:33.228Z,38
2023-04-08T00:05:36.982Z,38
2023-04-08T00:06:40.291Z,38
2023-04-08T00:07:43.600Z,38
2023-04-08T00:08:46.934Z,38
2023-04-08T00:09:50.506Z,38
2023-04-08T00:10:54.448Z,38
2023-04-08T00:11:57.938Z,38
2023-04-08T00:13:01.315Z,38
2023-04-08T00:14:04.764Z,38
2023-04-08T00:15:08.278Z,38
2023-04-08T00:16:11.835Z,38
2023-04-08T00:17:15.118Z,38
2023-04-08T00:18:18.484Z,37
2023-04-08T00:19:21.935Z,37
2023-04-08T00:20:25.233Z,37
2023-04-08T00:21:28.961Z,37
2023-04-08T00:22:32.230Z,37
2023-04-08T00:23:35.836Z,37
2023-04-08T00:24:39.108Z,37
2023-04-08T00:25:42.410Z,38
2023-04-08T00:26:45.964Z,38
2023-04-08T00:27:49.244Z,38
2023-04-08T00:28:52.577Z,38
2023-04-08T00:29:55.938Z,38
2023-04-08T00:30:59.304Z,38
2023-04-08T00:32:02.947Z,38
2023-04-08T00:33:06.335Z,38
2023-04-08T00:34:09.775Z,37
2023-04-08T00:35:13.068Z,37
2023-04-08T00:36:16.359Z,37
2023-04-08T00:37:19.661Z,37
2023-04-08T00:38:22.935Z,37
2023-04-08T00:39:26.275Z,37
2023-04-08T00:40:29.835Z,37
2023-04-08T00:41:33.207Z,37
2023-04-08T00:42:36.528Z,37
2023-04-08T00:43:39.943Z,37
2023-04-08T00:44:43.249Z,37
2023-04-08T00:45:46.654Z,37
2023-04-08T00:46:49.980Z,37
2023-04-08T00:47:53.451Z,37
2023-04-08T00:48:57.014Z,37
2023-04-08T00:50:00.357Z,37
2023-04-08T00:51:03.654Z,37
2023-04-08T00:52:06.964Z,37
2023-04-08T00:53:10.231Z,37
2023-04-08T00:54:13.501Z,37
2023-04-08T00:55:17.000Z,37
2023-04-08T00:56:20.323Z,37
2023-04-08T00:57:23.860Z,37
2023-04-08T00:58:27.162Z,37
2023-04-08T00:59:30.442Z,37
2023-04-08T01:00:33.940Z,37
2023-04-08T01:01:37.349Z,37
2023-04-08T01:02:41.198Z,37
2023-04-08T01:03:45.103Z,37
2023-04-08T01:04:48.605Z,37
2023-04-08T01:05:51.972Z,37
2023-04-08T01:06:55.267Z,37
2023-04-08T01:07:58.539Z,37
2023-04-08T01:09:01.960Z,37
2023-04-08T01:10:05.364Z,37
2023-04-08T01:11:08.906Z,37
2023-04-08T01:12:12.186Z,37
2023-04-08T01:13:15.484Z,37
2023-04-08T01:14:18.973Z,37
2023-04-08T01:15:22.330Z,37
2023-04-08T01:16:25.897Z,37
2023-04-08T01:17:29.466Z,37
2023-04-08T01:18:33.068Z,37
2023-04-08T01:19:36.327Z,37
2023-04-08T01:20:39.630Z,37
2023-04-08T01:21:42.969Z,37
2023-04-08T01:22:46.261Z,37
2023-04-08T01:23:49.562Z,37
2023-04-08T01:24:52.953Z,37
2023-04-08T01:25:56.239Z,37
2023-04-08T01:26:59.839Z,37
2023-04-08T01:28:03.117Z,37
2023-04-08T01:29:06.399Z,37
2023-04-08T01:30:09.705Z,37
2023-04-08T01:31:13.189Z,37
2023-04-08T01:32:16.536Z,37
2023-04-08T01:33:19.810Z,37
2023-04-08T01:34:23.098Z,37
2023-04-08T01:35:26.855Z,37
2023-04-08T01:36:30.331Z,37
2023-04-08T01:37:33.627Z,36
2023-04-08T01:38:36.953Z,36
2023-04-08T01:39:40.234Z,35
2023-04-08T01:40:43.516Z,35
2023-04-08T01:41:47.011Z,35
2023-04-08T01:42:50.317Z,35
2023-04-08T01:43:53.848Z,35
2023-04-08T01:44:57.107Z,35
2023-04-08T01:46:00.426Z,35
2023-04-08T01:47:04.162Z,35
2023-04-08T01:48:07.714Z,35
2023-04-08T01:49:11.084Z,35
2023-04-08T01:50:14.414Z,35
2023-04-08T01:51:17.995Z,34
2023-04-08T01:52:21.294Z,34
2023-04-08T01:53:24.584Z,34
2023-04-08T01:54:28.019Z,34
2023-04-08T01:55:31.316Z,34
2023-04-08T01:56:34.626Z,34
2023-04-08T01:57:37.993Z,35
2023-04-08T01:58:41.429Z,35
2023-04-08T01:59:44.962Z,35
2023-04-08T02:00:48.247Z,36
2023-04-08T02:01:51.865Z,36
2023-04-08T02:02:55.704Z,36
2023-04-08T02:03:59.982Z,36
2023-04-08T02:05:03.672Z,36
2023-04-08T02:06:07.092Z,36
2023-04-08T02:07:10.378Z,36
2023-04-08T02:08:13.673Z,36
2023-04-08T02:09:17.032Z,36
2023-04-08T02:10:20.341Z,36
2023-04-08T02:11:23.860Z,37
2023-04-08T02:12:27.163Z,37
2023-04-08T02:13:30.459Z,37
2023-04-08T02:14:33.998Z,37
2023-04-08T02:15:37.303Z,37
2023-04-08T02:16:40.835Z,37
2023-04-08T02:17:44.971Z,37
2023-04-08T02:18:48.736Z,37
2023-04-08T02:19:52.633Z,36
2023-04-08T02:20:55.978Z,36
2023-04-08T02:21:59.243Z,36
2023-04-08T02:23:02.511Z,36
2023-04-08T02:24:06.023Z,36
2023-04-08T02:25:09.360Z,36
2023-04-08T02:26:12.638Z,37
2023-04-08T02:27:16.011Z,37
2023-04-08T02:28:19.308Z,37
2023-04-08T02:29:22.608Z,37
2023-04-08T02:30:26.012Z,37
2023-04-08T02:31:29.470Z,37
2023-04-08T02:32:33.041Z,37
2023-04-08T02:33:36.470Z,37
2023-04-08T02:34:39.724Z,37
2023-04-08T02:35:43.267Z,37
2023-04-08T02:36:46.712Z,37
2023-04-08T02:37:49.997Z,37
2023-04-08T02:38:53.348Z,37
2023-04-08T02:39:56.873Z,37
2023-04-08T02:41:00.223Z,37
2023-04-08T02:42:03.486Z,37
2023-04-08T02:43:07.014Z,37
2023-04-08T02:44:10.291Z,37
2023-04-08T02:45:13.562Z,37
2023-04-08T02:46:17.175Z,37
2023-04-08T02:47:20.945Z,37
2023-04-08T02:48:24.284Z,37
2023-04-08T02:49:27.591Z,37
2023-04-08T02:50:31.012Z,37
2023-04-08T02:51:34.314Z,37
2023-04-08T02:52:37.585Z,37
2023-04-08T02:53:41.164Z,36
2023-04-08T02:54:44.438Z,37
2023-04-08T02:55:47.973Z,36
2023-04-08T02:56:51.345Z,37
2023-04-08T02:57:54.637Z,37
2023-04-08T02:58:58.011Z,37
2023-04-08T03:00:01.350Z,37
2023-04-08T03:01:04.712Z,37
2023-04-08T03:02:08.433Z,37
2023-04-08T03:03:12.326Z,37
2023-04-08T03:04:16.024Z,37
2023-04-08T03:05:19.362Z,37
2023-04-08T03:06:22.680Z,37
2023-04-08T03:07:26.005Z,37
2023-04-08T03:08:29.281Z,37
2023-04-08T03:09:32.601Z,37
2023-04-08T03:10:36.107Z,37
2023-04-08T03:11:39.367Z,37
2023-04-08T03:12:42.761Z,37
2023-04-08T03:13:46.021Z,37
2023-04-08T03:14:49.319Z,37
2023-04-08T03:15:52.604Z,37
2023-04-08T03:16:56.255Z,37
2023-04-08T03:17:59.979Z,37
2023-04-08T03:19:03.410Z,36
2023-04-08T03:20:06.711Z,36
2023-04-08T03:21:10.076Z,36
2023-04-08T03:22:13.348Z,36
2023-04-08T03:23:16.635Z,36
2023-04-08T03:24:20.034Z,36
2023-04-08T03:25:23.336Z,36
2023-04-08T03:26:26.623Z,36
2023-04-08T03:27:30.146Z,36
2023-04-08T03:28:33.614Z,37
2023-04-08T03:29:37.202Z,36
2023-04-08T03:30:40.723Z,36
2023-04-08T03:31:44.089Z,36
2023-04-08T03:32:47.962Z,36
2023-04-08T03:33:51.376Z,36
2023-04-08T03:34:54.675Z,37
2023-04-08T03:35:58.147Z,37
2023-04-08T03:37:01.525Z,37
2023-04-08T03:38:05.016Z,37
2023-04-08T03:39:08.293Z,37
2023-04-08T03:40:11.578Z,37
2023-04-08T03:41:15.097Z,37
2023-04-08T03:42:21.158Z,37
2023-04-08T03:43:24.442Z,37
2023-04-08T03:44:27.742Z,37
2023-04-08T03:45:31.101Z,37
2023-04-08T03:46:34.382Z,37
2023-04-08T03:47:37.802Z,37
2023-04-08T03:48:41.257Z,37
2023-04-08T03:49:44.553Z,36
2023-04-08T03:50:48.083Z,36
2023-04-08T03:51:51.380Z,36
2023-04-08T03:52:54.674Z,37
2023-04-08T03:53:58.050Z,36
2023-04-08T03:55:01.384Z,36
2023-04-08T03:56:04.735Z,37
2023-04-08T03:57:08.056Z,36
2023-04-08T03:58:11.330Z,36
2023-04-08T03:59:14.639Z,37
2023-04-08T04:00:18.153Z,36
2023-04-08T04:01:21.446Z,36
2023-04-08T04:02:25.154Z,37
2023-04-08T04:03:29.351Z,36
2023-04-08T04:04:33.157Z,36
2023-04-08T04:05:36.549Z,35
2023-04-08T04:06:40.051Z,35
2023-04-08T04:07:43.344Z,35
2023-04-08T04:08:46.672Z,34
2023-04-08T04:09:50.028Z,34
2023-04-08T04:10:53.311Z,34
2023-04-08T04:11:56.591Z,34
2023-04-08T04:13:00.127Z,34
2023-04-08T04:14:03.400Z,34
2023-04-08T04:15:06.664Z,34
2023-04-08T04:16:10.144Z,34
2023-04-08T04:17:13.577Z,34
2023-04-08T04:18:17.104Z,34
2023-04-08T04:19:20.432Z,34
2023-04-08T04:20:24.174Z,34
2023-04-08T04:21:27.573Z,34
2023-04-08T04:22:31.127Z,34
2023-04-08T04:23:34.402Z,34
2023-04-08T04:24:37.692Z,34
2023-04-08T04:25:41.046Z,34
2023-04-08T04:26:44.345Z,34
2023-04-08T04:27:47.636Z,34
2023-04-08T04:28:51.437Z,34
2023-04-08T04:29:55.183Z,34
2023-04-08T04:30:58.539Z,34
2023-04-08T04:32:02.091Z,34
2023-04-08T04:33:05.447Z,35
2023-04-08T04:34:09.065Z,35
2023-04-08T04:35:12.382Z,35
2023-04-08T04:36:15.664Z,35
2023-04-08T04:37:19.049Z,35
2023-04-08T04:38:22.356Z,36
2023-04-08T04:39:28.920Z,36
2023-04-08T04:40:32.231Z,36
2023-04-08T04:41:35.514Z,36
2023-04-08T04:42:39.050Z,36
2023-04-08T04:43:42.312Z,36
2023-04-08T04:44:45.599Z,36
2023-04-08T04:45:49.072Z,36
2023-04-08T04:46:52.533Z,36
2023-04-08T04:47:56.141Z,36
2023-04-08T04:48:59.551Z,36
2023-04-08T04:50:03.064Z,36
2023-04-08T04:51:06.348Z,36
2023-04-08T04:52:09.619Z,36
2023-04-08T04:53:13.061Z,36
2023-04-08T04:54:16.333Z,36
2023-04-08T04:55:19.623Z,36
2023-04-08T04:56:22.973Z,36
2023-04-08T04:57:26.282Z,36
2023-04-08T04:58:29.559Z,36
2023-04-08T04:59:33.063Z,36
2023-04-08T05:00:36.354Z,36
2023-04-08T05:01:39.906Z,36
2023-04-08T05:02:44.425Z,36
2023-04-08T05:03:48.408Z,36
2023-04-08T05:04:52.150Z,35
2023-04-08T05:05:55.485Z,35
2023-04-08T05:06:58.789Z,35
2023-04-08T05:08:02.076Z,34
2023-04-08T05:09:05.376Z,34
2023-04-08T05:10:08.651Z,34
2023-04-08T05:11:12.199Z,34
2023-04-08T05:12:15.516Z,34
2023-04-08T05:13:18.835Z,34
2023-04-08T05:14:22.116Z,34
2023-04-08T05:15:25.431Z,34
2023-04-08T05:16:28.796Z,34
2023-04-08T05:17:32.233Z,34
2023-04-08T05:18:35.568Z,34
2023-04-08T05:19:39.109Z,34
2023-04-08T05:20:42.403Z,34
2023-04-08T05:21:45.670Z,34
2023-04-08T05:22:49.104Z,34
2023-04-08T05:23:52.417Z,34
2023-04-08T05:24:55.704Z,34
2023-04-08T05:25:59.085Z,34
2023-04-08T05:27:02.367Z,34
2023-04-08T05:28:05.738Z,34
2023-04-08T05:29:09.247Z,34
2023-04-08T05:30:12.508Z,34
2023-04-08T05:31:15.824Z,34
2023-04-08T05:32:19.144Z,34
2023-04-08T05:33:22.435Z,34
2023-04-08T05:34:25.753Z,34
2023-04-08T05:35:29.286Z,34
2023-04-08T05:36:32.624Z,34
2023-04-08T05:37:36.234Z,35
2023-04-08T05:38:39.521Z,35
2023-04-08T05:39:42.816Z,35
2023-04-08T05:40:46.113Z,35
2023-04-08T05:41:49.378Z,36
2023-04-08T05:42:52.639Z,36
2023-04-08T05:43:56.134Z,36
2023-04-08T05:44:59.460Z,36
2023-04-08T05:46:02.711Z,36
2023-04-08T05:47:06.522Z,36
2023-04-08T05:48:10.380Z,36
2023-04-08T05:49:14.124Z,36
2023-04-08T05:50:17.436Z,36
2023-04-08T05:51:21.013Z,36
2023-04-08T05:52:24.300Z,36
2023-04-08T05:53:27.575Z,36
2023-04-08T05:54:31.110Z,36
2023-04-08T05:55:34.396Z,36
2023-04-08T05:56:37.748Z,36
2023-04-08T05:57:41.107Z,36
2023-04-08T05:58:44.412Z,36
2023-04-08T05:59:48.001Z,36
2023-04-08T06:00:51.308Z,36
2023-04-08T06:01:54.734Z,37
2023-04-08T06:02:58.601Z,36
2023-04-08T06:04:02.749Z,36
2023-04-08T06:05:06.641Z,36
2023-04-08T06:06:10.176Z,35
2023-04-08T06:07:13.511Z,35
2023-04-08T06:08:16.810Z,35
2023-04-08T06:09:20.115Z,35
2023-04-08T06:10:23.411Z,35
2023-04-08T06:11:26.709Z,36
2023-04-08T06:12:30.251Z,36
2023-04-08T06:13:33.591Z,36
2023-04-08T06:14:37.098Z,36
2023-04-08T06:15:40.396Z,36
2023-04-08T06:16:43.882Z,36
2023-04-08T06:17:47.324Z,36
2023-04-08T06:18:51.112Z,36
2023-04-08T06:19:55.112Z,36
2023-04-08T06:20:58.400Z,36
2023-04-08T06:22:01.722Z,36
2023-04-08T06:23:05.136Z,36
2023-04-08T06:24:08.471Z,36
2023-04-08T06:25:11.980Z,36
2023-04-08T06:26:15.470Z,36
2023-04-08T06:27:18.758Z,36
2023-04-08T06:28:22.115Z,36
2023-04-08T06:29:25.460Z,36
2023-04-08T06:30:28.800Z,36
2023-04-08T06:31:32.351Z,36
2023-04-08T06:32:35.729Z,35
2023-04-08T06:33:39.313Z,35
2023-04-08T06:34:42.638Z,35
2023-04-08T06:35:46.183Z,34
2023-04-08T06:36:49.545Z,34
2023-04-08T06:37:52.819Z,34
2023-04-08T06:38:56.148Z,34
2023-04-08T06:39:59.481Z,34
2023-04-08T06:41:03.009Z,34
2023-04-08T06:42:06.635Z,34
2023-04-08T06:43:10.114Z,34
2023-04-08T06:44:13.401Z,34
2023-04-08T06:45:16.744Z,34
2023-04-08T06:46:20.290Z,34
2023-04-08T06:47:23.755Z,34
2023-04-08T06:48:27.261Z,34
2023-04-08T06:49:30.525Z,34
2023-04-08T06:50:33.817Z,34
2023-04-08T06:51:37.135Z,34
2023-04-08T06:52:40.419Z,34
2023-04-08T06:53:43.709Z,35
2023-04-08T06:54:47.185Z,35
2023-04-08T06:55:50.492Z,36
2023-04-08T06:56:54.035Z,36
2023-04-08T06:57:57.314Z,36
2023-04-08T06:59:00.591Z,36
2023-04-08T07:00:04.151Z,36
2023-04-08T07:01:07.532Z,36
2023-04-08T07:02:11.244Z,36
2023-04-08T07:03:15.264Z,36
2023-04-08T07:04:18.932Z,36
2023-04-08T07:05:22.594Z,36
2023-04-08T07:06:26.144Z,36
2023-04-08T07:07:29.428Z,36
2023-04-08T07:08:32.745Z,36
2023-04-08T07:09:36.227Z,36
2023-04-08T07:10:39.629Z,36
2023-04-08T07:11:43.161Z,36
2023-04-08T07:12:46.466Z,36
2023-04-08T07:13:50.060Z,36
2023-04-08T07:14:53.352Z,36
2023-04-08T07:15:56.669Z,36
2023-04-08T07:17:00.355Z,36
2023-04-08T07:18:03.698Z,36
2023-04-08T07:19:07.225Z,36
2023-04-08T07:20:10.507Z,36
2023-04-08T07:21:13.803Z,36
2023-04-08T07:22:17.150Z,36
2023-04-08T07:23:20.479Z,36
2023-04-08T07:24:24.015Z,36
2023-04-08T07:25:27.325Z,36
2023-04-08T07:26:30.622Z,37
2023-04-08T07:27:34.206Z,37
2023-04-08T07:28:37.494Z,37
2023-04-08T07:29:40.789Z,37
2023-04-08T07:30:44.225Z,37
2023-04-08T07:31:48.017Z,37
2023-04-08T07:32:51.365Z,37
2023-04-08T07:33:54.838Z,37
2023-04-08T07:34:58.170Z,37
2023-04-08T07:36:01.534Z,36
2023-04-08T07:37:04.871Z,36
2023-04-08T07:38:08.158Z,36
2023-04-08T07:39:11.452Z,36
2023-04-08T07:40:15.163Z,36
2023-04-08T07:41:18.507Z,37
2023-04-08T07:42:21.844Z,37
2023-04-08T07:43:25.148Z,37
2023-04-08T07:44:28.417Z,37
2023-04-08T07:45:31.704Z,37
2023-04-08T07:46:35.263Z,37
2023-04-08T07:47:39.081Z,37
2023-04-08T07:48:42.604Z,37
2023-04-08T07:49:46.161Z,37
2023-04-08T07:51:07.887Z,37
2023-04-08T07:52:07.561Z,37
2023-04-08T07:53:10.820Z,37
2023-04-08T07:54:14.146Z,36
2023-04-08T07:55:17.787Z,37
2023-04-08T07:56:21.654Z,37
2023-04-08T07:57:25.484Z,37
2023-04-08T07:58:29.275Z,37
2023-04-08T07:59:33.283Z,37
2023-04-08T08:00:36.721Z,37
2023-04-08T08:01:40.269Z,37
2023-04-08T08:02:44.028Z,37
2023-04-08T08:03:48.987Z,37
2023-04-08T08:04:53.221Z,37
2023-04-08T08:05:56.632Z,37
2023-04-08T08:07:00.252Z,37
2023-04-08T08:08:03.543Z,37
2023-04-08T08:09:06.831Z,37
2023-04-08T08:10:10.121Z,37
2023-04-08T08:11:13.431Z,37
2023-04-08T08:12:16.783Z,37
2023-04-08T08:13:20.198Z,37
2023-04-08T08:14:23.488Z,37
2023-04-08T08:15:27.047Z,37
2023-04-08T08:16:30.412Z,37
2023-04-08T08:17:34.240Z,37
2023-04-08T08:18:37.745Z,37
2023-04-08T08:19:41.166Z,38
2023-04-08T08:20:44.465Z,37
2023-04-08T08:21:47.783Z,37
2023-04-08T08:22:57.510Z,37
2023-04-08T08:24:01.323Z,37
2023-04-08T08:25:04.618Z,37
2023-04-08T08:26:07.902Z,37
2023-04-08T08:27:11.188Z,36
2023-04-08T08:28:14.446Z,36
2023-04-08T08:29:17.773Z,36
2023-04-08T08:30:21.328Z,36
2023-04-08T08:31:24.773Z,36
2023-04-08T08:32:28.270Z,35
2023-04-08T08:33:31.736Z,36
2023-04-08T08:34:35.181Z,35
2023-04-08T08:35:38.513Z,35
2023-04-08T08:36:42.084Z,35
2023-04-08T08:37:45.406Z,35
2023-04-08T08:38:48.736Z,35
2023-04-08T08:39:52.180Z,35
2023-04-08T08:40:55.457Z,35
2023-04-08T08:41:58.764Z,35
2023-04-08T08:43:02.205Z,35
2023-04-08T08:44:05.489Z,34
2023-04-08T08:45:09.069Z,35
2023-04-08T08:46:12.517Z,35
2023-04-08T08:47:15.860Z,35
2023-04-08T08:48:19.258Z,35
2023-04-08T08:49:22.559Z,34
2023-04-08T08:50:25.870Z,34
2023-04-08T08:51:29.190Z,34
2023-04-08T08:52:32.476Z,34
2023-04-08T08:53:36.398Z,34
2023-04-08T08:54:39.694Z,34
2023-04-08T08:56:05.320Z,34
2023-04-08T08:57:01.308Z,34
2023-04-08T08:58:04.599Z,34
2023-04-08T08:59:07.971Z,34
2023-04-08T09:00:11.291Z,34
2023-04-08T09:01:14.581Z,33
2023-04-08T09:02:18.151Z,33
2023-04-08T09:03:22.430Z,34
2023-04-08T09:04:27.178Z,33
2023-04-08T09:05:31.178Z,33
2023-04-08T09:06:34.628Z,32
2023-04-08T09:07:37.948Z,32
2023-04-08T09:08:41.270Z,32
2023-04-08T09:09:44.657Z,32
2023-04-08T09:10:48.202Z,32
2023-04-08T09:11:51.479Z,31
2023-04-08T09:12:54.809Z,32
2023-04-08T09:13:58.086Z,32
2023-04-08T09:15:01.408Z,32
2023-04-08T09:16:04.758Z,32
2023-04-08T09:17:08.200Z,33
2023-04-08T09:18:11.501Z,33
2023-04-08T09:19:14.790Z,33
2023-04-08T09:20:18.441Z,33
2023-04-08T09:21:21.789Z,33
2023-04-08T09:22:25.228Z,33
2023-04-08T09:23:28.507Z,33
2023-04-08T09:24:31.792Z,34
2023-04-08T09:25:35.236Z,34
2023-04-08T09:26:38.582Z,34
2023-04-08T09:27:42.115Z,34
2023-04-08T09:28:45.427Z,34
2023-04-08T09:29:48.731Z,34
2023-04-08T09:30:52.222Z,34
2023-04-08T09:31:56.063Z,35
2023-04-08T09:33:00.275Z,34
2023-04-08T09:34:03.730Z,34
2023-04-08T09:35:07.236Z,34
2023-04-08T09:36:10.608Z,35
2023-04-08T09:37:14.214Z,35
2023-04-08T09:38:17.774Z,35
2023-04-08T09:39:21.306Z,35
2023-04-08T09:40:24.603Z,35
2023-04-08T09:41:27.956Z,35
2023-04-08T09:42:31.243Z,35
2023-04-08T09:43:34.533Z,35
2023-04-08T09:44:37.842Z,35
2023-04-08T09:45:42.220Z,35
2023-04-08T09:46:45.584Z,35
2023-04-08T09:47:49.085Z,35
2023-04-08T09:48:52.418Z,35
2023-04-08T09:49:55.722Z,35
2023-04-08T09:50:59.242Z,35
2023-04-08T09:52:02.542Z,35
2023-04-08T09:53:06.139Z,35
2023-04-08T09:54:12.337Z,35
2023-04-08T09:55:15.634Z,35
2023-04-08T09:56:18.909Z,35
2023-04-08T09:57:22.318Z,35
2023-04-08T09:58:25.613Z,36
2023-04-08T09:59:29.010Z,35
2023-04-08T10:00:32.687Z,35
2023-04-08T10:01:36.638Z,35
2023-04-08T10:02:40.637Z,35
2023-04-08T10:03:44.364Z,35
2023-04-08T10:04:48.170Z,35
2023-04-08T10:05:51.544Z,35
2023-04-08T10:06:54.850Z,35
2023-04-08T10:07:58.258Z,35
2023-04-08T10:09:01.613Z,36
2023-04-08T10:10:04.930Z,35
2023-04-08T10:11:08.257Z,36
2023-04-08T10:12:11.634Z,35
2023-04-08T10:13:17.469Z,35
2023-04-08T10:14:20.784Z,36
2023-04-08T10:15:24.330Z,35
2023-04-08T10:16:28.066Z,35
2023-04-08T10:17:31.474Z,35
2023-04-08T10:18:34.851Z,35
2023-04-08T10:19:38.264Z,35
2023-04-08T10:20:41.546Z,34
2023-04-08T10:21:44.822Z,34
2023-04-08T10:22:48.332Z,34
2023-04-08T10:23:51.816Z,34
2023-04-08T10:24:55.228Z,34
2023-04-08T10:25:58.521Z,34
2023-04-08T10:27:01.809Z,34
2023-04-08T10:28:07.671Z,34
2023-04-08T10:29:11.032Z,34
2023-04-08T10:30:14.346Z,34
2023-04-08T10:31:17.701Z,34
2023-04-08T10:32:21.495Z,35
2023-04-08T10:33:24.923Z,35
2023-04-08T10:34:28.232Z,35
2023-04-08T10:35:31.780Z,35
2023-04-08T10:36:35.275Z,36
2023-04-08T10:37:38.565Z,35
2023-04-08T10:38:42.157Z,35
2023-04-08T10:39:45.497Z,36
2023-04-08T10:40:48.793Z,35
2023-04-08T10:41:52.248Z,36
2023-04-08T10:42:55.552Z,36
2023-04-08T10:44:01.906Z,36
2023-04-08T10:45:05.279Z,36
2023-04-08T10:46:08.657Z,36
2023-04-08T10:47:12.243Z,37
2023-04-08T10:48:15.567Z,36
2023-04-08T10:49:18.898Z,37
2023-04-08T10:50:22.246Z,36
2023-04-08T10:51:25.544Z,36
2023-04-08T10:52:28.831Z,37
2023-04-08T10:53:32.327Z,37
2023-04-08T10:54:35.612Z,37
2023-04-08T10:55:39.122Z,37
2023-04-08T10:56:42.423Z,37
2023-04-08T10:57:45.682Z,37
2023-04-08T10:58:48.954Z,37
2023-04-08T10:59:52.267Z,37
2023-04-08T11:00:55.611Z,37
2023-04-08T11:01:59.414Z,37
2023-04-08T11:03:03.668Z,36
2023-04-08T11:04:07.526Z,36
2023-04-08T11:05:11.306Z,36
2023-04-08T11:06:14.609Z,36
2023-04-08T11:07:18.162Z,36
2023-04-08T11:08:21.437Z,36
2023-04-08T11:09:24.714Z,36
2023-04-08T11:10:27.994Z,36
2023-04-08T11:11:31.296Z,36
2023-04-08T11:12:34.630Z,37
2023-04-08T11:13:37.934Z,37
2023-04-08T11:14:41.255Z,37
2023-04-08T11:15:44.611Z,36
2023-04-08T11:16:48.196Z,36
2023-04-08T11:17:51.742Z,37
2023-04-08T11:18:55.257Z,37
2023-04-08T11:19:58.565Z,36
2023-04-08T11:21:01.861Z,35
2023-04-08T11:22:05.282Z,35
2023-04-08T11:23:08.633Z,35
2023-04-08T11:24:12.177Z,35
2023-04-08T11:25:15.558Z,35
2023-04-08T11:26:18.862Z,35
2023-04-08T11:27:22.263Z,34
2023-04-08T11:28:25.560Z,34
2023-04-08T11:29:28.850Z,34
2023-04-08T11:30:32.276Z,34
2023-04-08T11:31:35.695Z,35
2023-04-08T11:32:39.383Z,34
2023-04-08T11:33:42.961Z,34
2023-04-08T11:34:46.264Z,35
2023-04-08T11:35:49.579Z,34
2023-04-08T11:36:52.946Z,34
2023-04-08T11:37:56.274Z,34
2023-04-08T11:38:59.570Z,34
2023-04-08T11:40:02.859Z,34
2023-04-08T11:41:06.377Z,34
2023-04-08T11:42:09.675Z,35
2023-04-08T11:43:12.980Z,35
2023-04-08T11:44:16.289Z,35
2023-04-08T11:45:19.586Z,36
2023-04-08T11:46:23.131Z,36
2023-04-08T11:47:27.202Z,36
2023-04-08T11:48:30.546Z,36
2023-04-08T11:49:33.828Z,36
2023-04-08T11:50:37.277Z,36
2023-04-08T11:51:40.526Z,36
2023-04-08T11:52:43.797Z,36
2023-04-08T11:53:47.295Z,36
2023-04-08T11:54:50.655Z,36
2023-04-08T11:55:54.144Z,36
2023-04-08T11:56:57.399Z,36
2023-04-08T11:58:00.874Z,36
2023-04-08T11:59:04.282Z,36
2023-04-08T12:00:07.586Z,36
2023-04-08T12:01:10.922Z,36
2023-04-08T12:02:14.332Z,36
2023-04-08T12:03:18.076Z,37
2023-04-08T12:04:21.893Z,36
2023-04-08T12:05:25.561Z,36
2023-04-08T12:06:28.838Z,36
2023-04-08T12:07:32.293Z,36
2023-04-08T12:08:35.597Z,36
2023-04-08T12:09:38.875Z,36
2023-04-08T12:10:42.489Z,36
2023-04-08T12:11:45.803Z,36
2023-04-08T12:12:49.296Z,35
2023-04-08T12:13:53.617Z,36
2023-04-08T12:14:57.505Z,36
2023-04-08T12:16:00.887Z,36
2023-04-08T12:17:04.292Z,36
2023-04-08T12:18:07.598Z,36
2023-04-08T12:19:11.042Z,36
2023-04-08T12:20:14.388Z,36
2023-04-08T12:21:17.655Z,36
2023-04-08T12:22:21.170Z,36
2023-04-08T12:23:24.435Z,36
2023-04-08T12:24:27.748Z,36
2023-04-08T12:25:31.008Z,36
2023-04-08T12:26:34.338Z,36
2023-04-08T12:27:37.607Z,36
2023-04-08T12:28:40.926Z,36
2023-04-08T12:29:44.294Z,36
2023-04-08T12:30:47.580Z,36
2023-04-08T12:31:51.222Z,36
2023-04-08T12:32:54.801Z,36
2023-04-08T12:33:58.310Z,36
2023-04-08T12:35:01.666Z,36
2023-04-08T12:36:05.077Z,36
2023-04-08T12:37:08.454Z,36
2023-04-08T12:38:11.747Z,36
2023-04-08T12:39:15.323Z,36
2023-04-08T12:40:18.603Z,36
2023-04-08T12:41:21.888Z,36
2023-04-08T12:42:25.346Z,36
2023-04-08T12:43:28.667Z,36
2023-04-08T12:44:31.957Z,36
2023-04-08T12:45:35.305Z,36
2023-04-08T12:46:38.676Z,36
2023-04-08T12:47:42.335Z,36
2023-04-08T12:48:47.752Z,36
2023-04-08T12:49:51.320Z,36
2023-04-08T12:50:54.612Z,36
2023-04-08T12:51:57.943Z,36
2023-04-08T12:53:01.314Z,36
2023-04-08T12:54:04.634Z,36
2023-04-08T12:55:07.926Z,36
2023-04-08T12:56:11.324Z,36
2023-04-08T12:57:14.648Z,36
2023-04-08T12:58:18.643Z,36
2023-04-08T12:59:24.558Z,35
2023-04-08T13:00:27.836Z,35
2023-04-08T13:01:31.869Z,35
2023-04-08T13:02:35.594Z,35
2023-04-08T13:03:39.772Z,35
2023-04-08T13:04:43.454Z,35
2023-04-08T13:05:46.711Z,35
2023-04-08T13:06:49.998Z,35
2023-04-08T13:07:53.348Z,35
2023-04-08T13:08:56.632Z,35
2023-04-08T13:09:59.919Z,35
2023-04-08T13:11:03.419Z,35
2023-04-08T13:12:06.719Z,35
2023-04-08T13:13:10.036Z,35
2023-04-08T13:14:13.350Z,35
2023-04-08T13:15:16.638Z,35
2023-04-08T13:16:20.105Z,35
2023-04-08T13:17:23.764Z,35
2023-04-08T13:18:27.570Z,35
2023-04-08T13:19:30.883Z,35
2023-04-08T13:20:34.348Z,35
2023-04-08T13:21:37.645Z,35
2023-04-08T13:22:40.955Z,35
2023-04-08T13:23:44.362Z,35
2023-04-08T13:24:47.627Z,35
2023-04-08T13:25:50.898Z,35
2023-04-08T13:26:54.441Z,35
2023-04-08T13:27:57.714Z,35
2023-04-08T13:29:01.804Z,35
2023-04-08T13:30:06.244Z,35
2023-04-08T13:31:09.521Z,35
2023-04-08T13:32:13.017Z,35
2023-04-08T13:33:16.381Z,35
2023-04-08T13:34:19.666Z,35
2023-04-08T13:35:22.958Z,35
2023-04-08T13:36:26.353Z,35
2023-04-08T13:37:29.651Z,35
2023-04-08T13:38:32.957Z,35
2023-04-08T13:39:36.466Z,35
2023-04-08T13:40:39.749Z,35
2023-04-08T13:41:43.049Z,35
2023-04-08T13:42:46.353Z,35
2023-04-08T13:43:49.632Z,34
2023-04-08T13:44:52.904Z,35
2023-04-08T13:45:56.503Z,35
2023-04-08T13:46:59.824Z,35
2023-04-08T13:48:03.442Z,34
2023-04-08T13:49:06.772Z,35
2023-04-08T13:50:10.074Z,34
2023-04-08T13:51:13.380Z,34
2023-04-08T13:52:16.681Z,34
2023-04-08T13:53:19.974Z,35
2023-04-08T13:54:23.336Z,35
2023-04-08T13:55:26.642Z,35
2023-04-08T13:56:29.933Z,35
2023-04-08T13:57:33.483Z,35
2023-04-08T13:58:36.757Z,35
2023-04-08T13:59:42.693Z,34
2023-04-08T14:00:48.384Z,35
2023-04-08T14:01:52.229Z,34
2023-04-08T14:02:56.229Z,34
2023-04-08T14:03:59.733Z,34
2023-04-08T14:05:03.312Z,33
2023-04-08T14:06:06.621Z,33
2023-04-08T14:07:09.910Z,33
2023-04-08T14:08:13.587Z,33
2023-04-08T14:09:17.348Z,32
2023-04-08T14:10:20.631Z,32
2023-04-08T14:11:23.939Z,31
2023-04-08T14:12:27.441Z,31
2023-04-08T14:13:30.739Z,31
2023-04-08T14:14:34.010Z,30
2023-04-08T14:15:37.356Z,30
2023-04-08T14:16:40.697Z,31
2023-04-08T14:17:44.389Z,31
2023-04-08T14:18:47.741Z,32
2023-04-08T14:19:51.314Z,32
2023-04-08T14:20:54.608Z,32
2023-04-08T14:21:57.959Z,32
2023-04-08T14:23:01.359Z,32
2023-04-08T14:24:04.682Z,33
2023-04-08T14:25:07.984Z,33
2023-04-08T14:26:11.413Z,33
2023-04-08T14:27:14.713Z,33
2023-04-08T14:28:18.268Z,33
2023-04-08T14:29:21.546Z,33
2023-04-08T14:30:24.847Z,34
2023-04-08T14:31:28.363Z,34
2023-04-08T14:32:31.697Z,34
2023-04-08T14:33:35.374Z,34
2023-04-08T14:34:38.652Z,33
2023-04-08T14:35:41.968Z,33
2023-04-08T14:36:45.583Z,33
2023-04-08T14:37:48.867Z,34
2023-04-08T14:38:52.851Z,34
2023-04-08T14:39:56.694Z,34
2023-04-08T14:40:59.972Z,34
2023-04-08T14:42:03.474Z,34
2023-04-08T14:43:06.794Z,34
2023-04-08T14:44:10.113Z,34
2023-04-08T14:45:13.561Z,34
2023-04-08T14:46:17.106Z,34
2023-04-08T14:47:20.566Z,34
2023-04-08T14:48:23.921Z,34
2023-04-08T14:49:30.240Z,34
2023-04-08T14:50:33.541Z,34
2023-04-08T14:51:36.828Z,35
2023-04-08T14:52:40.111Z,34
2023-04-08T14:53:43.418Z,34
2023-04-08T14:54:46.714Z,34
2023-04-08T14:55:50.038Z,34
2023-04-08T14:56:53.353Z,34
2023-04-08T14:57:57.735Z,34
2023-04-08T14:59:04.129Z,34
2023-04-08T15:00:07.408Z,34
2023-04-08T15:01:10.821Z,33
2023-04-08T15:02:14.754Z,33
2023-04-08T15:03:18.597Z,33
2023-04-08T15:04:22.587Z,33
2023-04-08T15:05:26.140Z,33